Portada
METAR-TAF:

METAR-TAF

Aeroports :

Hettinger Municipal Airport

Hettinger, Dakota del Nord, Estats Units d'Amèrica

latitud: 46-00-38N, longitud: 102-38-59W, altitud: 824 m

Observació

L'informe es va fer fa 49 minuts, a les 16:53 UTC
Vent 9 kt del Oest
Temperatura 1°C
Humitat 80%
Pressió 1016 hPa
Visibilitat: 16.1 km
Cel clar

METAR: KHEI 281653Z AUTO 28009KT 10SM CLR 01/M02 A3000 RMK AO2 SLP187 T00111022

Hora: 10:42 (17:42 UTC)


TAF: manca

Observacions i pronòstics meteorològics de més de 4000 aeroports (METAR i TAF).

Les estacions disponibles són els punts grocs i vermells al mapa.

Posi el ratolí al punt desitjat per veure el nom de l'estació.

Feu clic per veure les observacions i els pronòstics meteorològics.

Per canviar el mapa: feu clic els botons verds amb una creu de color negre per apropar; al botó verd amb un guió per allunyar la imatge; o en les fletxes verdes per a mapes adjacents.


METAR-TAF: